Terminal Aerodrome Forecast
Issued by NWS Sterling, VA

Current Version | Previous Version | Text Only | Print | Product List | Glossary Off
Versions: 1 2 3 4 5 6 7 8 9 10 11 12 13 14 15 16 17 18 19 20 21 22 23 24 25

000
FTUS41 KLWX 282326
TAFIAD
TAF
KIAD 282326Z 2900/3006 07008KT 2SM -RADZ BR OVC005
     FM290300 07005KT 2SM -DZ BR OVC005
     FM291100 06005KT 2SM -RADZ BR OVC005
     FM291600 08005KT P6SM BKN008 OVC015
     FM292100 09005KT P6SM SCT008 OVC015
     FM300200 06004KT 5SM -DZ BR OVC008=

USA.gov is the U.S. government's official web portal to all federal, state and local government web resources and services.